sensor_id;sensor_type;location;lat;lon;timestamp;pressure;altitude;pressure_sealevel;temperature;humidity
13486;BME280;6815;59.336;17.998;2022-10-31T00:01:28;77770.69;;;-145.37;82.60
13486;BME280;6815;59.336;17.998;2022-10-31T00:03:54;77766.66;;;-145.37;82.75
13486;BME280;6815;59.336;17.998;2022-10-31T00:06:19;77766.66;;;-145.37;82.92
13486;BME280;6815;59.336;17.998;2022-10-31T00:08:46;77762.66;;;-145.37;82.98
13486;BME280;6815;59.336;17.998;2022-10-31T00:11:11;77772.69;;;-145.37;83.86
13486;BME280;6815;59.336;17.998;2022-10-31T00:13:37;77772.69;;;-145.37;83.98
13486;BME280;6815;59.336;17.998;2022-10-31T00:16:04;77762.66;;;-145.37;83.73
13486;BME280;6815;59.336;17.998;2022-10-31T00:18:30;77766.66;;;-145.37;84.30
13486;BME280;6815;59.336;17.998;2022-10-31T00:21:02;77760.63;;;-145.37;83.89
13486;BME280;6815;59.336;17.998;2022-10-31T00:23:28;77752.59;;;-145.37;83.79
13486;BME280;6815;59.336;17.998;2022-10-31T00:25:54;77770.69;;;-145.37;84.36
13486;BME280;6815;59.336;17.998;2022-10-31T00:28:24;77764.66;;;-145.37;83.86
13486;BME280;6815;59.336;17.998;2022-10-31T00:30:50;77758.63;;;-145.37;83.80
13486;BME280;6815;59.336;17.998;2022-10-31T00:33:15;77782.75;;;-145.37;85.01
13486;BME280;6815;59.336;17.998;2022-10-31T00:35:41;77796.84;;;-145.37;85.90
13486;BME280;6815;59.336;17.998;2022-10-31T00:38:06;77772.69;;;-145.37;84.73
13486;BME280;6815;59.336;17.998;2022-10-31T00:40:31;77768.69;;;-145.37;84.13
13486;BME280;6815;59.336;17.998;2022-10-31T00:42:57;77760.63;;;-145.37;84.24
13486;BME280;6815;59.336;17.998;2022-10-31T00:45:22;77766.66;;;-145.37;84.81
13486;BME280;6815;59.336;17.998;2022-10-31T00:47:49;77756.63;;;-145.37;84.97
13486;BME280;6815;59.336;17.998;2022-10-31T00:50:15;77756.63;;;-145.37;84.65
13486;BME280;6815;59.336;17.998;2022-10-31T00:52:40;77752.59;;;-145.37;84.64
13486;BME280;6815;59.336;17.998;2022-10-31T00:55:06;77760.63;;;-145.37;85.33
13486;BME280;6815;59.336;17.998;2022-10-31T00:57:31;77772.69;;;-145.37;86.20
13486;BME280;6815;59.336;17.998;2022-10-31T00:59:57;77766.66;;;-145.37;86.31
13486;BME280;6815;59.336;17.998;2022-10-31T01:02:22;77768.69;;;-145.37;86.73
13486;BME280;6815;59.336;17.998;2022-10-31T01:04:48;77760.63;;;-145.37;85.86
13486;BME280;6815;59.336;17.998;2022-10-31T01:07:13;77758.63;;;-145.37;86.06
13486;BME280;6815;59.336;17.998;2022-10-31T01:09:39;77748.56;;;-145.37;85.53
13486;BME280;6815;59.336;17.998;2022-10-31T01:12:06;77746.56;;;-145.37;85.49
13486;BME280;6815;59.336;17.998;2022-10-31T01:14:31;77758.63;;;-145.37;86.30
13486;BME280;6815;59.336;17.998;2022-10-31T01:16:57;77760.63;;;-145.37;86.87
13486;BME280;6815;59.336;17.998;2022-10-31T01:19:22;77746.56;;;-145.37;86.56
13486;BME280;6815;59.336;17.998;2022-10-31T01:21:47;77744.53;;;-145.37;86.95
13486;BME280;6815;59.336;17.998;2022-10-31T01:24:13;77756.63;;;-145.37;88.09
13486;BME280;6815;59.336;17.998;2022-10-31T01:26:38;77744.53;;;-145.37;87.29
13486;BME280;6815;59.336;17.998;2022-10-31T01:29:06;77746.56;;;-145.37;87.06
13486;BME280;6815;59.336;17.998;2022-10-31T01:31:35;77740.53;;;-145.37;87.24
13486;BME280;6815;59.336;17.998;2022-10-31T01:34:02;77738.50;;;-145.37;86.92
13486;BME280;6815;59.336;17.998;2022-10-31T01:36:34;77740.53;;;-145.37;87.58
13486;BME280;6815;59.336;17.998;2022-10-31T01:39:18;77756.63;;;-145.37;89.18
13486;BME280;6815;59.336;17.998;2022-10-31T01:41:46;77750.59;;;-145.37;88.83
13486;BME280;6815;59.336;17.998;2022-10-31T01:49:17;77752.59;;;-145.37;88.86
13486;BME280;6815;59.336;17.998;2022-10-31T01:51:56;77750.59;;;-145.37;88.43
13486;BME280;6815;59.336;17.998;2022-10-31T01:54:28;77748.56;;;-145.37;87.80
13486;BME280;6815;59.336;17.998;2022-10-31T01:56:57;77740.53;;;-145.37;87.54
13486;BME280;6815;59.336;17.998;2022-10-31T01:59:27;77750.59;;;-145.37;87.48
13486;BME280;6815;59.336;17.998;2022-10-31T02:01:55;77754.59;;;-145.37;87.94
13486;BME280;6815;59.336;17.998;2022-10-31T02:04:22;77760.63;;;-145.37;87.88
13486;BME280;6815;59.336;17.998;2022-10-31T02:06:57;77760.63;;;-145.37;88.75
13486;BME280;6815;59.336;17.998;2022-10-31T02:09:24;77758.63;;;-145.37;88.53
13486;BME280;6815;59.336;17.998;2022-10-31T02:11:57;77750.59;;;-145.37;88.16
13486;BME280;6815;59.336;17.998;2022-10-31T02:14:25;77746.56;;;-145.37;87.85
13486;BME280;6815;59.336;17.998;2022-10-31T02:16:53;77744.53;;;-145.37;87.70
13486;BME280;6815;59.336;17.998;2022-10-31T02:19:42;77744.53;;;-145.37;87.54
13486;BME280;6815;59.336;17.998;2022-10-31T02:28:00;77738.50;;;-145.37;88.47
13486;BME280;6815;59.336;17.998;2022-10-31T02:30:48;77734.50;;;-145.37;88.25
13486;BME280;6815;59.336;17.998;2022-10-31T02:33:39;77728.47;;;-145.37;88.63
13486;BME280;6815;59.336;17.998;2022-10-31T02:36:16;77744.53;;;-145.37;89.53
13486;BME280;6815;59.336;17.998;2022-10-31T02:38:52;77732.47;;;-145.37;88.42
13486;BME280;6815;59.336;17.998;2022-10-31T02:46:44;77740.53;;;-145.37;89.31
13486;BME280;6815;59.336;17.998;2022-10-31T02:49:48;77744.53;;;-145.37;89.04
13486;BME280;6815;59.336;17.998;2022-10-31T02:52:25;77732.47;;;-145.37;89.68
13486;BME280;6815;59.336;17.998;2022-10-31T02:54:51;77736.50;;;-145.37;89.59
13486;BME280;6815;59.336;17.998;2022-10-31T02:57:20;77754.59;;;-145.37;91.27
13486;BME280;6815;59.336;17.998;2022-10-31T02:59:50;77742.53;;;-145.37;91.02
13486;BME280;6815;59.336;17.998;2022-10-31T03:13:38;77744.53;;;-145.37;91.21
13486;BME280;6815;59.336;17.998;2022-10-31T03:16:11;77748.56;;;-145.37;91.91
13486;BME280;6815;59.336;17.998;2022-10-31T03:18:43;77744.53;;;-145.37;92.23
13486;BME280;6815;59.336;17.998;2022-10-31T03:21:14;77734.50;;;-145.37;91.89
13486;BME280;6815;59.336;17.998;2022-10-31T03:23:44;77722.41;;;-145.37;91.31
13486;BME280;6815;59.336;17.998;2022-10-31T03:26:11;77726.44;;;-145.37;92.30
13486;BME280;6815;59.336;17.998;2022-10-31T03:28:43;77718.41;;;-145.37;93.21
13486;BME280;6815;59.336;17.998;2022-10-31T03:31:14;77704.31;;;-145.37;91.58
13486;BME280;6815;59.336;17.998;2022-10-31T03:33:42;77724.44;;;-145.37;93.73
13486;BME280;6815;59.336;17.998;2022-10-31T03:36:10;77720.41;;;-145.37;93.50
13486;BME280;6815;59.336;17.998;2022-10-31T03:38:37;77702.31;;;-145.37;93.44
13486;BME280;6815;59.336;17.998;2022-10-31T03:41:05;77690.25;;;-145.37;92.32
13486;BME280;6815;59.336;17.998;2022-10-31T03:43:40;77698.28;;;-145.37;93.07
13486;BME280;6815;59.336;17.998;2022-10-31T03:46:07;77684.22;;;-145.37;92.52
13486;BME280;6815;59.336;17.998;2022-10-31T03:48:33;77670.13;;;-145.37;92.04
13486;BME280;6815;59.336;17.998;2022-10-31T03:51:13;77690.25;;;-145.37;93.89
13486;BME280;6815;59.336;17.998;2022-10-31T03:53:49;77684.22;;;-145.37;93.91
13486;BME280;6815;59.336;17.998;2022-10-31T03:56:51;77660.06;;;-145.37;93.30
13486;BME280;6815;59.336;17.998;2022-10-31T03:59:17;77656.06;;;-145.37;93.90
13486;BME280;6815;59.336;17.998;2022-10-31T04:01:48;77656.06;;;-145.37;94.13
13486;BME280;6815;59.336;17.998;2022-10-31T04:04:15;77646.00;;;-145.37;93.51
13486;BME280;6815;59.336;17.998;2022-10-31T04:06:42;77631.91;;;-145.37;93.71
13486;BME280;6815;59.336;17.998;2022-10-31T04:09:11;77621.88;;;-145.37;93.76
13486;BME280;6815;59.336;17.998;2022-10-31T04:11:46;77617.84;;;-145.37;94.24
13486;BME280;6815;59.336;17.998;2022-10-31T04:14:14;77607.78;;;-145.37;94.39
13486;BME280;6815;59.336;17.998;2022-10-31T04:16:42;77607.78;;;-145.37;94.55
13486;BME280;6815;59.336;17.998;2022-10-31T04:19:09;77595.72;;;-145.37;94.28
13486;BME280;6815;59.336;17.998;2022-10-31T04:21:34;77591.69;;;-145.37;94.93
13486;BME280;6815;59.336;17.998;2022-10-31T04:24:00;77583.66;;;-145.37;94.58
13486;BME280;6815;59.336;17.998;2022-10-31T04:26:25;77583.66;;;-145.37;95.81
13486;BME280;6815;59.336;17.998;2022-10-31T04:28:51;77583.66;;;-145.37;94.79
13486;BME280;6815;59.336;17.998;2022-10-31T04:31:17;77583.66;;;-145.37;96.55
13486;BME280;6815;59.336;17.998;2022-10-31T04:33:43;77581.63;;;-145.37;95.22
13486;BME280;6815;59.336;17.998;2022-10-31T04:36:09;77575.59;;;-145.37;96.17
13486;BME280;6815;59.336;17.998;2022-10-31T04:38:34;77559.53;;;-145.37;96.80
13486;BME280;6815;59.336;17.998;2022-10-31T04:41:00;77553.47;;;-145.37;96.58
13486;BME280;6815;59.336;17.998;2022-10-31T04:43:25;77557.50;;;-145.37;97.20
13486;BME280;6815;59.336;17.998;2022-10-31T04:45:51;77551.47;;;-145.37;97.04
13486;BME280;6815;59.336;17.998;2022-10-31T04:48:17;77547.44;;;-145.37;96.61
13486;BME280;6815;59.336;17.998;2022-10-31T04:50:42;77547.44;;;-145.37;96.01
13486;BME280;6815;59.336;17.998;2022-10-31T04:53:08;77535.38;;;-145.37;98.05
13486;BME280;6815;59.336;17.998;2022-10-31T04:55:35;77533.38;;;-145.37;97.32
13486;BME280;6815;59.336;17.998;2022-10-31T04:58:00;77529.34;;;-145.37;98.07
13486;BME280;6815;59.336;17.998;2022-10-31T05:00:26;77531.34;;;-145.37;98.75
13486;BME280;6815;59.336;17.998;2022-10-31T05:02:53;77525.31;;;-145.37;99.26
13486;BME280;6815;59.336;17.998;2022-10-31T05:05:21;77531.34;;;-145.37;100.00
13486;BME280;6815;59.336;17.998;2022-10-31T05:07:48;77519.28;;;-145.37;100.00
13486;BME280;6815;59.336;17.998;2022-10-31T05:10:19;77515.28;;;-145.37;100.00
13486;BME280;6815;59.336;17.998;2022-10-31T05:12:51;77505.22;;;-145.37;100.00
13486;BME280;6815;59.336;17.998;2022-10-31T05:15:18;77505.22;;;-145.37;100.00
13486;BME280;6815;59.336;17.998;2022-10-31T05:17:44;77505.22;;;-145.37;100.00
13486;BME280;6815;59.336;17.998;2022-10-31T05:20:11;77507.22;;;-145.37;100.00
13486;BME280;6815;59.336;17.998;2022-10-31T05:22:42;77505.22;;;-145.37;100.00
13486;BME280;6815;59.336;17.998;2022-10-31T05:25:08;77505.22;;;-145.37;100.00
13486;BME280;6815;59.336;17.998;2022-10-31T05:27:33;77505.22;;;-145.37;100.00
13486;BME280;6815;59.336;17.998;2022-10-31T05:29:58;77499.19;;;-145.37;100.00
13486;BME280;6815;59.336;17.998;2022-10-31T05:32:24;77507.22;;;-145.37;100.00
13486;BME280;6815;59.336;17.998;2022-10-31T05:34:49;77511.25;;;-145.37;100.00
13486;BME280;6815;59.336;17.998;2022-10-31T05:37:15;77503.22;;;-145.37;100.00
13486;BME280;6815;59.336;17.998;2022-10-31T05:39:40;77497.16;;;-145.37;100.00
13486;BME280;6815;59.336;17.998;2022-10-31T05:42:05;77503.22;;;-145.37;100.00
13486;BME280;6815;59.336;17.998;2022-10-31T05:44:31;77499.19;;;-145.37;100.00
13486;BME280;6815;59.336;17.998;2022-10-31T05:46:56;77495.16;;;-145.37;100.00
13486;BME280;6815;59.336;17.998;2022-10-31T05:49:22;77495.16;;;-145.37;100.00
13486;BME280;6815;59.336;17.998;2022-10-31T05:51:48;77493.16;;;-145.37;100.00
13486;BME280;6815;59.336;17.998;2022-10-31T05:54:13;77493.16;;;-145.37;100.00
13486;BME280;6815;59.336;17.998;2022-10-31T05:56:38;77489.13;;;-145.37;100.00
13486;BME280;6815;59.336;17.998;2022-10-31T05:59:04;77491.13;;;-145.37;100.00
13486;BME280;6815;59.336;17.998;2022-10-31T06:01:29;77491.13;;;-145.37;100.00
13486;BME280;6815;59.336;17.998;2022-10-31T06:03:55;77491.13;;;-145.37;100.00
13486;BME280;6815;59.336;17.998;2022-10-31T06:06:20;77493.16;;;-145.37;100.00
13486;BME280;6815;59.336;17.998;2022-10-31T06:08:45;77485.09;;;-145.37;100.00
13486;BME280;6815;59.336;17.998;2022-10-31T06:11:11;77489.13;;;-145.37;100.00
13486;BME280;6815;59.336;17.998;2022-10-31T06:13:37;77483.09;;;-145.37;100.00
13486;BME280;6815;59.336;17.998;2022-10-31T06:16:02;77479.06;;;-145.37;100.00
13486;BME280;6815;59.336;17.998;2022-10-31T06:18:29;77479.06;;;-145.37;100.00
13486;BME280;6815;59.336;17.998;2022-10-31T06:20:54;77473.03;;;-145.37;100.00
13486;BME280;6815;59.336;17.998;2022-10-31T06:23:20;77481.09;;;-145.37;100.00
13486;BME280;6815;59.336;17.998;2022-10-31T06:25:49;77483.09;;;-145.37;100.00
13486;BME280;6815;59.336;17.998;2022-10-31T06:28:14;77485.09;;;-145.37;100.00
13486;BME280;6815;59.336;17.998;2022-10-31T06:30:40;77473.03;;;-145.37;100.00
13486;BME280;6815;59.336;17.998;2022-10-31T06:33:05;77475.06;;;-145.37;100.00
13486;BME280;6815;59.336;17.998;2022-10-31T06:35:31;77467.00;;;-145.37;100.00
13486;BME280;6815;59.336;17.998;2022-10-31T06:37:58;77460.97;;;-145.37;100.00
13486;BME280;6815;59.336;17.998;2022-10-31T06:40:23;77460.97;;;-145.37;100.00
13486;BME280;6815;59.336;17.998;2022-10-31T06:42:59;77452.94;;;-145.37;100.00
13486;BME280;6815;59.336;17.998;2022-10-31T06:45:26;77454.94;;;-145.37;100.00
13486;BME280;6815;59.336;17.998;2022-10-31T06:47:53;77454.94;;;-145.37;100.00
13486;BME280;6815;59.336;17.998;2022-10-31T06:50:19;77450.91;;;-145.37;100.00
13486;BME280;6815;59.336;17.998;2022-10-31T06:52:54;77450.91;;;-145.37;100.00
13486;BME280;6815;59.336;17.998;2022-10-31T06:55:20;77454.94;;;-145.37;100.00
13486;BME280;6815;59.336;17.998;2022-10-31T06:57:55;77454.94;;;-145.37;100.00
13486;BME280;6815;59.336;17.998;2022-10-31T07:00:23;77454.94;;;-145.37;100.00
13486;BME280;6815;59.336;17.998;2022-10-31T07:02:56;77450.91;;;-145.37;100.00
13486;BME280;6815;59.336;17.998;2022-10-31T07:05:22;77450.91;;;-145.37;100.00
13486;BME280;6815;59.336;17.998;2022-10-31T07:07:50;77446.91;;;-145.37;100.00
13486;BME280;6815;59.336;17.998;2022-10-31T07:10:16;77450.91;;;-145.37;100.00
13486;BME280;6815;59.336;17.998;2022-10-31T07:12:42;77446.91;;;-145.37;100.00
13486;BME280;6815;59.336;17.998;2022-10-31T07:15:07;77440.88;;;-145.37;100.00
13486;BME280;6815;59.336;17.998;2022-10-31T07:17:33;77438.84;;;-145.37;100.00
13486;BME280;6815;59.336;17.998;2022-10-31T07:19:58;77430.81;;;-145.37;100.00
13486;BME280;6815;59.336;17.998;2022-10-31T07:22:24;77432.81;;;-145.37;100.00
13486;BME280;6815;59.336;17.998;2022-10-31T07:24:49;77420.75;;;-145.37;100.00
13486;BME280;6815;59.336;17.998;2022-10-31T07:27:14;77422.75;;;-145.37;100.00
13486;BME280;6815;59.336;17.998;2022-10-31T07:29:40;77422.75;;;-145.37;100.00
13486;BME280;6815;59.336;17.998;2022-10-31T07:32:05;77422.75;;;-145.37;100.00
13486;BME280;6815;59.336;17.998;2022-10-31T07:34:30;77426.78;;;-145.37;100.00
13486;BME280;6815;59.336;17.998;2022-10-31T07:36:56;77412.72;;;-145.37;100.00
13486;BME280;6815;59.336;17.998;2022-10-31T07:39:21;77418.75;;;-145.37;100.00
13486;BME280;6815;59.336;17.998;2022-10-31T07:41:47;77412.72;;;-145.37;100.00
13486;BME280;6815;59.336;17.998;2022-10-31T07:44:12;77404.66;;;-145.37;100.00
13486;BME280;6815;59.336;17.998;2022-10-31T07:46:37;77402.66;;;-145.37;100.00
13486;BME280;6815;59.336;17.998;2022-10-31T07:49:03;77408.69;;;-145.37;100.00
13486;BME280;6815;59.336;17.998;2022-10-31T07:51:29;77402.66;;;-145.37;100.00
13486;BME280;6815;59.336;17.998;2022-10-31T07:53:54;77402.66;;;-145.37;100.00
13486;BME280;6815;59.336;17.998;2022-10-31T07:56:19;77396.63;;;-145.37;100.00
13486;BME280;6815;59.336;17.998;2022-10-31T07:58:45;77394.59;;;-145.37;100.00
13486;BME280;6815;59.336;17.998;2022-10-31T08:01:10;77390.59;;;-145.37;100.00
13486;BME280;6815;59.336;17.998;2022-10-31T08:03:36;77386.56;;;-145.37;100.00
13486;BME280;6815;59.336;17.998;2022-10-31T08:06:01;77380.53;;;-145.37;100.00
13486;BME280;6815;59.336;17.998;2022-10-31T08:08:26;77382.53;;;-145.37;100.00
13486;BME280;6815;59.336;17.998;2022-10-31T08:10:53;77382.53;;;-145.37;100.00
13486;BME280;6815;59.336;17.998;2022-10-31T08:13:19;77384.56;;;-145.37;100.00
13486;BME280;6815;59.336;17.998;2022-10-31T08:15:44;77382.53;;;-145.37;100.00
13486;BME280;6815;59.336;17.998;2022-10-31T08:18:15;77380.53;;;-145.37;100.00
13486;BME280;6815;59.336;17.998;2022-10-31T08:20:41;77376.50;;;-145.37;100.00
13486;BME280;6815;59.336;17.998;2022-10-31T08:23:10;77370.47;;;-145.37;100.00
13486;BME280;6815;59.336;17.998;2022-10-31T08:25:35;77366.44;;;-145.37;100.00
13486;BME280;6815;59.336;17.998;2022-10-31T08:28:01;77362.44;;;-145.37;100.00
13486;BME280;6815;59.336;17.998;2022-10-31T08:30:29;77356.41;;;-145.37;100.00
13486;BME280;6815;59.336;17.998;2022-10-31T08:33:06;77352.38;;;-145.37;100.00
13486;BME280;6815;59.336;17.998;2022-10-31T08:35:35;77354.38;;;-145.37;100.00
13486;BME280;6815;59.336;17.998;2022-10-31T08:38:00;77348.34;;;-145.37;100.00
13486;BME280;6815;59.336;17.998;2022-10-31T08:40:27;77354.38;;;-145.37;100.00
13486;BME280;6815;59.336;17.998;2022-10-31T08:43:01;77342.31;;;-145.37;100.00
13486;BME280;6815;59.336;17.998;2022-10-31T08:45:29;77346.34;;;-145.37;100.00
13486;BME280;6815;59.336;17.998;2022-10-31T08:48:04;77338.28;;;-145.37;100.00
13486;BME280;6815;59.336;17.998;2022-10-31T08:50:32;77328.25;;;-145.37;100.00
13486;BME280;6815;59.336;17.998;2022-10-31T08:55:27;77330.25;;;-145.37;100.00
13486;BME280;6815;59.336;17.998;2022-10-31T08:57:57;77326.22;;;-145.37;100.00
13486;BME280;6815;59.336;17.998;2022-10-31T09:00:23;77312.16;;;-145.37;100.00
13486;BME280;6815;59.336;17.998;2022-10-31T09:02:57;77308.13;;;-145.37;100.00
13486;BME280;6815;59.336;17.998;2022-10-31T09:05:23;77304.13;;;-145.37;100.00
13486;BME280;6815;59.336;17.998;2022-10-31T09:07:49;77304.13;;;-145.37;100.00
13486;BME280;6815;59.336;17.998;2022-10-31T09:10:14;77298.09;;;-145.37;100.00
13486;BME280;6815;59.336;17.998;2022-10-31T09:12:39;77294.06;;;-145.37;100.00
13486;BME280;6815;59.336;17.998;2022-10-31T09:15:07;77292.03;;;-145.37;100.00
13486;BME280;6815;59.336;17.998;2022-10-31T09:17:32;77298.09;;;-145.37;100.00
13486;BME280;6815;59.336;17.998;2022-10-31T09:19:58;77308.13;;;-145.37;100.00
13486;BME280;6815;59.336;17.998;2022-10-31T09:22:23;77310.16;;;-145.37;100.00
13486;BME280;6815;59.336;17.998;2022-10-31T09:24:48;77312.16;;;-145.37;100.00
13486;BME280;6815;59.336;17.998;2022-10-31T09:27:14;77306.13;;;-145.37;100.00
13486;BME280;6815;59.336;17.998;2022-10-31T09:29:39;77300.09;;;-145.37;100.00
13486;BME280;6815;59.336;17.998;2022-10-31T09:32:05;77300.09;;;-145.37;100.00
13486;BME280;6815;59.336;17.998;2022-10-31T09:34:30;77292.03;;;-145.37;100.00
13486;BME280;6815;59.336;17.998;2022-10-31T09:36:56;77290.03;;;-145.37;100.00
13486;BME280;6815;59.336;17.998;2022-10-31T09:39:21;77282.00;;;-145.37;100.00
13486;BME280;6815;59.336;17.998;2022-10-31T09:44:56;77271.94;;;-145.37;100.00
13486;BME280;6815;59.336;17.998;2022-10-31T09:50:22;77257.84;;;-145.37;100.00
13486;BME280;6815;59.336;17.998;2022-10-31T09:52:58;77257.84;;;-145.37;100.00
13486;BME280;6815;59.336;17.998;2022-10-31T09:55:37;77253.84;;;-145.37;100.00
13486;BME280;6815;59.336;17.998;2022-10-31T09:58:04;77253.84;;;-145.37;100.00
13486;BME280;6815;59.336;17.998;2022-10-31T10:00:30;77253.84;;;-145.37;100.00
13486;BME280;6815;59.336;17.998;2022-10-31T10:08:33;77243.78;;;-145.37;100.00
13486;BME280;6815;59.336;17.998;2022-10-31T10:19:49;77233.72;;;-145.37;100.00
13486;BME280;6815;59.336;17.998;2022-10-31T10:25:33;77229.72;;;-145.37;100.00
13486;BME280;6815;59.336;17.998;2022-10-31T10:36:19;77219.66;;;-145.37;100.00
13486;BME280;6815;59.336;17.998;2022-10-31T10:41:21;77213.63;;;-145.37;100.00
13486;BME280;6815;59.336;17.998;2022-10-31T10:43:51;77215.63;;;-145.37;100.00
13486;BME280;6815;59.336;17.998;2022-10-31T10:49:15;77201.56;;;-145.37;100.00
13486;BME280;6815;59.336;17.998;2022-10-31T10:57:31;77203.56;;;-145.37;100.00
13486;BME280;6815;59.336;17.998;2022-10-31T11:00:01;77193.50;;;-145.37;100.00
13486;BME280;6815;59.336;17.998;2022-10-31T11:02:31;77201.56;;;-145.37;100.00
13486;BME280;6815;59.336;17.998;2022-10-31T11:04:58;77197.53;;;-145.37;100.00
13486;BME280;6815;59.336;17.998;2022-10-31T11:07:25;77203.56;;;-145.37;100.00
13486;BME280;6815;59.336;17.998;2022-10-31T11:10:04;77193.50;;;-145.37;100.00
13486;BME280;6815;59.336;17.998;2022-10-31T11:12:32;77191.50;;;-145.37;100.00
13486;BME280;6815;59.336;17.998;2022-10-31T11:15:00;77185.47;;;-145.37;100.00
13486;BME280;6815;59.336;17.998;2022-10-31T11:17:38;77183.47;;;-145.37;100.00
13486;BME280;6815;59.336;17.998;2022-10-31T11:22:44;77185.47;;;-145.37;100.00
13486;BME280;6815;59.336;17.998;2022-10-31T11:27:45;77189.50;;;-145.37;100.00
13486;BME280;6815;59.336;17.998;2022-10-31T11:30:12;77187.47;;;-145.37;100.00
13486;BME280;6815;59.336;17.998;2022-10-31T11:32:44;77181.44;;;-145.37;100.00
13486;BME280;6815;59.336;17.998;2022-10-31T11:35:15;77159.31;;;-145.37;100.00
13486;BME280;6815;59.336;17.998;2022-10-31T11:37:44;77177.41;;;-145.37;100.00
13486;BME280;6815;59.336;17.998;2022-10-31T11:40:25;77153.28;;;-145.37;100.00
13486;BME280;6815;59.336;17.998;2022-10-31T11:42:52;77145.25;;;-145.37;100.00
13486;BME280;6815;59.336;17.998;2022-10-31T11:47:50;77137.19;;;-145.37;100.00
13486;BME280;6815;59.336;17.998;2022-10-31T11:50:21;77135.19;;;-145.37;100.00
13486;BME280;6815;59.336;17.998;2022-10-31T11:52:48;77135.19;;;-145.37;100.00
13486;BME280;6815;59.336;17.998;2022-10-31T11:57:45;77119.09;;;-145.37;100.00
13486;BME280;6815;59.336;17.998;2022-10-31T12:00:31;77113.06;;;-145.37;100.00
13486;BME280;6815;59.336;17.998;2022-10-31T12:06:01;77101.00;;;-145.37;100.00
13486;BME280;6815;59.336;17.998;2022-10-31T12:08:31;77086.94;;;-145.37;100.00
13486;BME280;6815;59.336;17.998;2022-10-31T12:11:22;77086.94;;;-145.37;100.00
13486;BME280;6815;59.336;17.998;2022-10-31T12:16:49;77078.88;;;-145.37;100.00
13486;BME280;6815;59.336;17.998;2022-10-31T12:19:41;77076.88;;;-145.37;100.00
13486;BME280;6815;59.336;17.998;2022-10-31T12:31:24;77060.78;;;-145.37;100.00
13486;BME280;6815;59.336;17.998;2022-10-31T12:37:41;77054.75;;;-145.37;100.00
13486;BME280;6815;59.336;17.998;2022-10-31T12:51:44;77052.75;;;-145.37;100.00
13486;BME280;6815;59.336;17.998;2022-10-31T12:59:41;77030.63;;;-145.37;100.00
13486;BME280;6815;59.336;17.998;2022-10-31T13:07:41;77024.59;;;-145.37;100.00
13486;BME280;6815;59.336;17.998;2022-10-31T13:10:18;77022.59;;;-145.37;100.00
13486;BME280;6815;59.336;17.998;2022-10-31T13:12:48;77022.59;;;-145.37;100.00
13486;BME280;6815;59.336;17.998;2022-10-31T13:15:23;77018.56;;;-145.37;100.00
13486;BME280;6815;59.336;17.998;2022-10-31T13:17:59;77016.56;;;-145.37;100.00
13486;BME280;6815;59.336;17.998;2022-10-31T13:20:30;77014.53;;;-145.37;100.00
13486;BME280;6815;59.336;17.998;2022-10-31T13:23:08;77012.53;;;-145.37;100.00
13486;BME280;6815;59.336;17.998;2022-10-31T13:25:40;77016.56;;;-145.37;100.00
13486;BME280;6815;59.336;17.998;2022-10-31T13:31:25;77016.56;;;-145.37;100.00
13486;BME280;6815;59.336;17.998;2022-10-31T13:33:57;77022.59;;;-145.37;100.00
13486;BME280;6815;59.336;17.998;2022-10-31T13:36:38;77016.56;;;-145.37;100.00
13486;BME280;6815;59.336;17.998;2022-10-31T13:42:22;77016.56;;;-145.37;100.00
13486;BME280;6815;59.336;17.998;2022-10-31T13:44:50;77004.50;;;-145.37;100.00
13486;BME280;6815;59.336;17.998;2022-10-31T13:47:28;77000.47;;;-145.37;100.00
13486;BME280;6815;59.336;17.998;2022-10-31T13:50:23;77000.47;;;-145.37;100.00
13486;BME280;6815;59.336;17.998;2022-10-31T13:52:49;77002.47;;;-145.37;100.00
13486;BME280;6815;59.336;17.998;2022-10-31T13:55:38;77002.47;;;-145.37;100.00
13486;BME280;6815;59.336;17.998;2022-10-31T13:58:16;76998.47;;;-145.37;100.00
13486;BME280;6815;59.336;17.998;2022-10-31T14:00:44;76994.44;;;-145.37;100.00
13486;BME280;6815;59.336;17.998;2022-10-31T14:03:18;76998.47;;;-145.37;100.00
13486;BME280;6815;59.336;17.998;2022-10-31T14:05:52;76998.47;;;-145.37;100.00
13486;BME280;6815;59.336;17.998;2022-10-31T14:08:21;76990.41;;;-145.37;100.00
13486;BME280;6815;59.336;17.998;2022-10-31T14:10:51;76996.44;;;-145.37;100.00
13486;BME280;6815;59.336;17.998;2022-10-31T14:13:34;76992.41;;;-145.37;100.00
13486;BME280;6815;59.336;17.998;2022-10-31T14:16:23;76990.41;;;-145.37;100.00
13486;BME280;6815;59.336;17.998;2022-10-31T14:19:21;76992.41;;;-145.37;100.00
13486;BME280;6815;59.336;17.998;2022-10-31T14:21:47;76990.41;;;-145.37;100.00
13486;BME280;6815;59.336;17.998;2022-10-31T14:24:34;76988.41;;;-145.37;100.00
13486;BME280;6815;59.336;17.998;2022-10-31T14:27:29;76992.41;;;-145.37;100.00
13486;BME280;6815;59.336;17.998;2022-10-31T14:29:49;76980.34;;;-145.37;100.00
13486;BME280;6815;59.336;17.998;2022-10-31T14:34:41;76980.34;;;-145.37;100.00
13486;BME280;6815;59.336;17.998;2022-10-31T14:45:57;76956.22;;;-145.37;100.00
13486;BME280;6815;59.336;17.998;2022-10-31T14:48:39;76972.31;;;-145.37;100.00
13486;BME280;6815;59.336;17.998;2022-10-31T14:51:16;76962.25;;;-145.37;100.00
13486;BME280;6815;59.336;17.998;2022-10-31T14:53:52;76960.25;;;-145.37;100.00
13486;BME280;6815;59.336;17.998;2022-10-31T14:56:29;76952.22;;;-145.37;100.00
13486;BME280;6815;59.336;17.998;2022-10-31T14:58:59;76960.25;;;-145.37;100.00
13486;BME280;6815;59.336;17.998;2022-10-31T15:01:34;76956.22;;;-145.37;100.00
13486;BME280;6815;59.336;17.998;2022-10-31T15:04:18;76954.22;;;-145.37;100.00
13486;BME280;6815;59.336;17.998;2022-10-31T15:07:19;76952.22;;;-145.37;100.00